KBKT/BKT METAR and TAF weather

Enter ICAO airport designator
Station Type Date Time Source
KBKT METAR 2022/06/25 23:15 UTC NOAA

KBKT 252315Z AUTO 12004KT 10SM CLR 29/17 A3010 RMK AO1 T02940168


Station Type Date Time Source
KBKT Decoded METAR 2022/06/25 23:15 UTC NOAA

Ft. Pickett / Blackstone, VA, United States (KBKT) 37-05N 077-57W
Jun 25, 2022 - 07:15 PM EDT / 2022.06.25 2315 UTC
Wind: from the ESE (120 degrees) at 5 MPH (4 KT):0
Visibility: 10 mile(s):0
Sky conditions: clear
Temperature: 84.9 F (29.4 C)
Dew Point: 62.2 F (16.8 C)
Relative Humidity: 46%
Pressure (altimeter): 30.1 in. Hg (1019 hPa)
ob: KBKT 252315Z AUTO 12004KT 10SM CLR 29/17 A3010 RMK AO1 T02940168
cycle: 23

Station Type Date Time Source
KBKT TAF UTC NOAA

Error!

Example: see airport list